HAZ5619 ZSPD-ZUTF
Flight info
| Callsign | HAZ5619 |
|---|---|
| Flight time | 2h 18m |
| Altitude | 32100 |
| Route | POMOK G330 PIMOL V14 NOBEM W73 MADUK W51 LEGIV W164 ADGOL W50 RURBU/K0887S1040 W50 XSH W80 AKOPI AKOPI7T |
| Aircraft | B77W/H-SDE1E2E3FGHIJ2J3J4J5M1RWXY/LB1D1 |
Departure
| Time | 2026-05-05 07:59 |
|---|---|
| Airport | Shanghai Pudong International Airport (ZSPD) |
Arrival
| Time | 2026-05-05 10:18 |
|---|---|
| Airport | Chengdu Tianfu International Airport (ZUTF) |
| Time | Latitude | Longitude | Altitude | Speed | Heading |
|---|---|---|---|---|---|
| 2026-05-05 07:59 | 31.01315 | 121.43817 | 16660 ft | 305 kts | 281° |
| 2026-05-05 07:59 | 31.01761 | 121.41391 | 16677 ft | 307 kts | 281° |
| 2026-05-05 07:59 | 31.02207 | 121.38965 | 16704 ft | 306 kts | 281° |
| 2026-05-05 08:00 | 31.02652 | 121.36541 | 16697 ft | 306 kts | 281° |
| 2026-05-05 08:00 | 31.03097 | 121.34116 | 17144 ft | 306 kts | 281° |
| 2026-05-05 08:00 | 31.03545 | 121.31672 | 18037 ft | 311 kts | 281° |
| 2026-05-05 08:00 | 31.04012 | 121.29120 | 18390 ft | 335 kts | 281° |
| 2026-05-05 08:01 | 31.04509 | 121.26403 | 18640 ft | 357 kts | 281° |
| 2026-05-05 08:01 | 31.05033 | 121.23533 | 19273 ft | 367 kts | 281° |
| 2026-05-05 08:01 | 31.05570 | 121.20591 | 20027 ft | 374 kts | 281° |
| 2026-05-05 08:01 | 31.06275 | 121.17681 | 20736 ft | 377 kts | 294° |
| 2026-05-05 08:02 | 31.07786 | 121.15146 | 21439 ft | 387 kts | 314° |
| 2026-05-05 08:02 | 31.09979 | 121.13283 | 22296 ft | 395 kts | 330° |
| 2026-05-05 08:02 | 31.12575 | 121.12178 | 23127 ft | 404 kts | 348° |
| 2026-05-05 08:02 | 31.15404 | 121.11947 | 23745 ft | 412 kts | 355° |
| 2026-05-05 08:03 | 31.18296 | 121.11869 | 24323 ft | 418 kts | 355° |
| 2026-05-05 08:03 | 31.21212 | 121.11772 | 25044 ft | 420 kts | 354° |
| 2026-05-05 08:03 | 31.24147 | 121.11634 | 25713 ft | 424 kts | 354° |
| 2026-05-05 08:03 | 31.27114 | 121.11467 | 26270 ft | 431 kts | 353° |
| 2026-05-05 08:04 | 31.30162 | 121.11286 | 26463 ft | 446 kts | 353° |
| 2026-05-05 08:04 | 31.33320 | 121.11098 | 26591 ft | 462 kts | 353° |
| 2026-05-05 08:04 | 31.36581 | 121.10956 | 26769 ft | 477 kts | 357° |
| 2026-05-05 08:04 | 31.39937 | 121.11148 | 27091 ft | 487 kts | 1° |
| 2026-05-05 08:05 | 31.43323 | 121.11432 | 27552 ft | 487 kts | 358° |
| 2026-05-05 08:05 | 31.46660 | 121.10983 | 28046 ft | 481 kts | 340° |
| 2026-05-05 08:05 | 31.49687 | 121.09452 | 28631 ft | 472 kts | 330° |
| 2026-05-05 08:05 | 31.52635 | 121.07726 | 29226 ft | 473 kts | 330° |
| 2026-05-05 08:06 | 31.55596 | 121.06050 | 29949 ft | 472 kts | 331° |
| 2026-05-05 08:06 | 31.58564 | 121.04422 | 30587 ft | 470 kts | 331° |
| 2026-05-05 08:06 | 31.61534 | 121.02826 | 31166 ft | 469 kts | 331° |
| 2026-05-05 08:06 | 31.64504 | 121.01243 | 31702 ft | 469 kts | 331° |
| 2026-05-05 08:07 | 31.67479 | 120.99657 | 32091 ft | 472 kts | 330° |
| 2026-05-05 08:07 | 31.70480 | 120.98053 | 32057 ft | 473 kts | 331° |
| 2026-05-05 08:07 | 31.76417 | 120.94876 | 32050 ft | 465 kts | 332° |
| 2026-05-05 08:08 | 31.82299 | 120.91736 | 32067 ft | 464 kts | 332° |
| 2026-05-05 08:08 | 31.88186 | 120.88592 | 32055 ft | 465 kts | 332° |
| 2026-05-05 08:09 | 31.94081 | 120.85439 | 32059 ft | 466 kts | 332° |
| 2026-05-05 08:09 | 31.99943 | 120.82301 | 32058 ft | 466 kts | 332° |
| 2026-05-05 08:10 | 32.05844 | 120.79135 | 32055 ft | 466 kts | 332° |
| 2026-05-05 08:10 | 32.11709 | 120.75921 | 32049 ft | 460 kts | 327° |
| 2026-05-05 08:11 | 32.14207 | 120.73627 | 32052 ft | 453 kts | 309° |
| 2026-05-05 08:11 | 32.15995 | 120.70604 | 32068 ft | 449 kts | 296° |
| 2026-05-05 08:11 | 32.17184 | 120.67209 | 32062 ft | 448 kts | 284° |
| 2026-05-05 08:11 | 32.17691 | 120.63603 | 32069 ft | 445 kts | 275° |
| 2026-05-05 08:12 | 32.18187 | 120.56295 | 32059 ft | 448 kts | 274° |
| 2026-05-05 08:12 | 32.18725 | 120.48946 | 32057 ft | 451 kts | 275° |
| 2026-05-05 08:13 | 32.19322 | 120.41570 | 32058 ft | 452 kts | 275° |
| 2026-05-05 08:13 | 32.19930 | 120.34186 | 32055 ft | 452 kts | 275° |
| 2026-05-05 08:14 | 32.20530 | 120.26789 | 32055 ft | 452 kts | 275° |
| 2026-05-05 08:14 | 32.21133 | 120.19395 | 32055 ft | 452 kts | 275° |
| 2026-05-05 08:15 | 32.21736 | 120.12015 | 32048 ft | 451 kts | 275° |
| 2026-05-05 08:15 | 32.22334 | 120.04636 | 32051 ft | 451 kts | 276° |
| 2026-05-05 08:16 | 32.22928 | 119.97257 | 32050 ft | 451 kts | 276° |
| 2026-05-05 08:16 | 32.23518 | 119.89871 | 32054 ft | 452 kts | 276° |
| 2026-05-05 08:17 | 32.24105 | 119.82484 | 32046 ft | 452 kts | 276° |
| 2026-05-05 08:17 | 32.24379 | 119.75065 | 32032 ft | 455 kts | 264° |
| 2026-05-05 08:18 | 32.23640 | 119.71433 | 32048 ft | 457 kts | 251° |
| 2026-05-05 08:18 | 32.22426 | 119.67971 | 32041 ft | 455 kts | 250° |
| 2026-05-05 08:18 | 32.20420 | 119.60930 | 32051 ft | 456 kts | 255° |
| 2026-05-05 08:19 | 32.18564 | 119.53699 | 32048 ft | 458 kts | 255° |
| 2026-05-05 08:19 | 32.16648 | 119.46563 | 32040 ft | 460 kts | 254° |
| 2026-05-05 08:20 | 32.14720 | 119.39350 | 32049 ft | 461 kts | 254° |
| 2026-05-05 08:20 | 32.12794 | 119.32121 | 32044 ft | 462 kts | 254° |
| 2026-05-05 08:21 | 32.10864 | 119.24896 | 32032 ft | 461 kts | 254° |
| 2026-05-05 08:21 | 32.08931 | 119.17690 | 32035 ft | 461 kts | 255° |
| 2026-05-05 08:22 | 32.06996 | 119.10489 | 32055 ft | 461 kts | 254° |
| 2026-05-05 08:22 | 32.05056 | 119.03286 | 32048 ft | 461 kts | 255° |
| 2026-05-05 08:23 | 32.03113 | 118.96088 | 32023 ft | 461 kts | 255° |
| 2026-05-05 08:23 | 32.01163 | 118.88880 | 32037 ft | 462 kts | 255° |
| 2026-05-05 08:24 | 31.99202 | 118.81653 | 32025 ft | 463 kts | 254° |
| 2026-05-05 08:24 | 31.96722 | 118.74633 | 32026 ft | 465 kts | 246° |
| 2026-05-05 08:25 | 31.93981 | 118.67735 | 32028 ft | 465 kts | 248° |
| 2026-05-05 08:25 | 31.91328 | 118.60782 | 32023 ft | 466 kts | 248° |
| 2026-05-05 08:26 | 31.88654 | 118.53822 | 32029 ft | 467 kts | 248° |
| 2026-05-05 08:26 | 31.85967 | 118.46850 | 32037 ft | 468 kts | 248° |
| 2026-05-05 08:27 | 31.83279 | 118.39882 | 32036 ft | 467 kts | 248° |
| 2026-05-05 08:27 | 31.80592 | 118.32930 | 32024 ft | 467 kts | 248° |
| 2026-05-05 08:28 | 31.78353 | 118.27158 | 32034 ft | 467 kts | 248° |
| 2026-05-05 08:28 | 31.75640 | 118.20220 | 32038 ft | 467 kts | 248° |
| 2026-05-05 08:29 | 31.72923 | 118.13275 | 32033 ft | 468 kts | 248° |
| 2026-05-05 08:30 | 31.69966 | 118.02464 | 32024 ft | 463 kts | 260° |
| 2026-05-05 08:30 | 31.68591 | 117.95066 | 32035 ft | 464 kts | 259° |
| 2026-05-05 08:31 | 31.67107 | 117.87682 | 32026 ft | 465 kts | 258° |
| 2026-05-05 08:31 | 31.65571 | 117.80304 | 32026 ft | 466 kts | 258° |
| 2026-05-05 08:32 | 31.64027 | 117.72928 | 32029 ft | 465 kts | 258° |
| 2026-05-05 08:32 | 31.62487 | 117.65558 | 32029 ft | 465 kts | 258° |
| 2026-05-05 08:33 | 31.60944 | 117.58197 | 32025 ft | 465 kts | 258° |
| 2026-05-05 08:33 | 31.59554 | 117.50803 | 32026 ft | 464 kts | 261° |
| 2026-05-05 08:34 | 31.58311 | 117.43386 | 32013 ft | 463 kts | 261° |
| 2026-05-05 08:34 | 31.57031 | 117.35983 | 32024 ft | 463 kts | 261° |
| 2026-05-05 08:35 | 31.55724 | 117.28580 | 32023 ft | 464 kts | 261° |
| 2026-05-05 08:35 | 31.54401 | 117.21171 | 32020 ft | 464 kts | 261° |
| 2026-05-05 08:36 | 31.53072 | 117.13757 | 32011 ft | 465 kts | 261° |
| 2026-05-05 08:36 | 31.51738 | 117.06326 | 32015 ft | 466 kts | 261° |
| 2026-05-05 08:37 | 31.50399 | 116.98882 | 32013 ft | 467 kts | 261° |
| 2026-05-05 08:37 | 31.49054 | 116.91425 | 32011 ft | 468 kts | 261° |
| 2026-05-05 08:38 | 31.47430 | 116.84052 | 31996 ft | 471 kts | 248° |
| 2026-05-05 08:38 | 31.45774 | 116.80785 | 32014 ft | 477 kts | 235° |
| 2026-05-05 08:38 | 31.43577 | 116.77875 | 32018 ft | 476 kts | 231° |
| 2026-05-05 08:39 | 31.39410 | 116.71852 | 32021 ft | 477 kts | 236° |
| 2026-05-05 08:39 | 31.35439 | 116.65615 | 32016 ft | 479 kts | 236° |
| 2026-05-05 08:40 | 31.31390 | 116.59416 | 32013 ft | 480 kts | 235° |
| 2026-05-05 08:40 | 31.27335 | 116.53239 | 32009 ft | 477 kts | 236° |
| 2026-05-05 08:41 | 31.23301 | 116.47082 | 32017 ft | 478 kts | 236° |
| 2026-05-05 08:41 | 31.19259 | 116.40913 | 32033 ft | 478 kts | 236° |
| 2026-05-05 08:42 | 31.15197 | 116.34726 | 32046 ft | 485 kts | 235° |
| 2026-05-05 08:42 | 31.11039 | 116.28402 | 32039 ft | 493 kts | 235° |
| 2026-05-05 08:43 | 31.06865 | 116.22080 | 32029 ft | 491 kts | 235° |
| 2026-05-05 08:43 | 31.02686 | 116.15786 | 32049 ft | 490 kts | 235° |
| 2026-05-05 08:44 | 30.98510 | 116.09500 | 32042 ft | 490 kts | 235° |
| 2026-05-05 08:44 | 30.94331 | 116.03211 | 32036 ft | 492 kts | 235° |
| 2026-05-05 08:45 | 30.90141 | 115.96916 | 32038 ft | 491 kts | 235° |
| 2026-05-05 08:45 | 30.85980 | 115.90675 | 32029 ft | 491 kts | 235° |
| 2026-05-05 08:46 | 30.81781 | 115.84339 | 32030 ft | 491 kts | 236° |
| 2026-05-05 08:46 | 30.77644 | 115.78073 | 32028 ft | 492 kts | 236° |
| 2026-05-05 08:47 | 30.73433 | 115.71704 | 32018 ft | 495 kts | 236° |
| 2026-05-05 08:47 | 30.69260 | 115.65401 | 32025 ft | 496 kts | 236° |
| 2026-05-05 08:48 | 30.65048 | 115.59050 | 32010 ft | 497 kts | 236° |
| 2026-05-05 08:48 | 30.60823 | 115.52688 | 32029 ft | 498 kts | 236° |
| 2026-05-05 08:49 | 30.56591 | 115.46328 | 32003 ft | 498 kts | 236° |
| 2026-05-05 08:49 | 30.52359 | 115.39971 | 32017 ft | 497 kts | 236° |
| 2026-05-05 08:50 | 30.48134 | 115.33638 | 31992 ft | 496 kts | 236° |
| 2026-05-05 08:50 | 30.44549 | 115.26991 | 31999 ft | 480 kts | 256° |
| 2026-05-05 08:50 | 30.43937 | 115.23228 | 32006 ft | 474 kts | 270° |
| 2026-05-05 08:51 | 30.44109 | 115.19442 | 31995 ft | 468 kts | 281° |
| 2026-05-05 08:51 | 30.45038 | 115.11940 | 32000 ft | 473 kts | 280° |
| 2026-05-05 08:52 | 30.45841 | 115.04342 | 31987 ft | 476 kts | 279° |
| 2026-05-05 08:52 | 30.46613 | 114.96759 | 31975 ft | 477 kts | 279° |
| 2026-05-05 08:53 | 30.47390 | 114.89116 | 31989 ft | 477 kts | 279° |
| 2026-05-05 08:53 | 30.48169 | 114.81479 | 31986 ft | 477 kts | 279° |
| 2026-05-05 08:54 | 30.48943 | 114.73853 | 31987 ft | 476 kts | 279° |
| 2026-05-05 08:54 | 30.49711 | 114.66239 | 31988 ft | 475 kts | 279° |
| 2026-05-05 08:55 | 30.50473 | 114.58637 | 31984 ft | 474 kts | 279° |
| 2026-05-05 08:55 | 30.51230 | 114.51039 | 31976 ft | 474 kts | 279° |
| 2026-05-05 08:56 | 30.51984 | 114.43438 | 31978 ft | 475 kts | 279° |
| 2026-05-05 08:56 | 30.52732 | 114.35837 | 31957 ft | 474 kts | 279° |
| 2026-05-05 08:57 | 30.53478 | 114.28236 | 31967 ft | 474 kts | 279° |
| 2026-05-05 08:57 | 30.54218 | 114.20635 | 31965 ft | 474 kts | 279° |
| 2026-05-05 08:58 | 30.54956 | 114.13033 | 31963 ft | 474 kts | 279° |
| 2026-05-05 08:58 | 30.55637 | 114.05423 | 31948 ft | 473 kts | 279° |
| 2026-05-05 08:59 | 30.56347 | 113.97846 | 31961 ft | 472 kts | 280° |
| 2026-05-05 08:59 | 30.57054 | 113.90283 | 31964 ft | 471 kts | 280° |
| 2026-05-05 09:00 | 30.57733 | 113.82722 | 31961 ft | 472 kts | 278° |
| 2026-05-05 09:00 | 30.57569 | 113.75072 | 31972 ft | 476 kts | 270° |
| 2026-05-05 09:01 | 30.57162 | 113.67413 | 31958 ft | 476 kts | 271° |
| 2026-05-05 09:01 | 30.56831 | 113.59795 | 31955 ft | 476 kts | 272° |
| 2026-05-05 09:02 | 30.56542 | 113.52117 | 31951 ft | 476 kts | 272° |
| 2026-05-05 09:02 | 30.56255 | 113.44433 | 31947 ft | 477 kts | 272° |
| 2026-05-05 09:03 | 30.55959 | 113.36749 | 31948 ft | 477 kts | 272° |
| 2026-05-05 09:03 | 30.55658 | 113.29061 | 31943 ft | 477 kts | 272° |
| 2026-05-05 09:04 | 30.55352 | 113.21377 | 31946 ft | 477 kts | 272° |
| 2026-05-05 09:04 | 30.55040 | 113.13690 | 31942 ft | 477 kts | 272° |
| 2026-05-05 09:05 | 30.54714 | 113.06005 | 31929 ft | 476 kts | 272° |
| 2026-05-05 09:05 | 30.54385 | 112.98334 | 31936 ft | 476 kts | 272° |
| 2026-05-05 09:06 | 30.54054 | 112.90669 | 31931 ft | 476 kts | 272° |
| 2026-05-05 09:06 | 30.53719 | 112.83007 | 31927 ft | 476 kts | 272° |
| 2026-05-05 09:07 | 30.53385 | 112.75358 | 31916 ft | 474 kts | 273° |
| 2026-05-05 09:07 | 30.53049 | 112.67732 | 31918 ft | 473 kts | 273° |
| 2026-05-05 09:08 | 30.52711 | 112.60124 | 31923 ft | 472 kts | 273° |
| 2026-05-05 09:08 | 30.52368 | 112.52516 | 31916 ft | 472 kts | 273° |
| 2026-05-05 09:09 | 30.52021 | 112.44912 | 31882 ft | 472 kts | 273° |
| 2026-05-05 09:09 | 30.51669 | 112.37313 | 31906 ft | 472 kts | 273° |
| 2026-05-05 09:10 | 30.51312 | 112.29713 | 31904 ft | 472 kts | 273° |
| 2026-05-05 09:10 | 30.50954 | 112.22163 | 31907 ft | 472 kts | 273° |
| 2026-05-05 09:11 | 30.50589 | 112.14560 | 31898 ft | 472 kts | 272° |
| 2026-05-05 09:11 | 30.50219 | 112.06957 | 31893 ft | 472 kts | 272° |
| 2026-05-05 09:12 | 30.49845 | 111.99351 | 31897 ft | 473 kts | 272° |
| 2026-05-05 09:12 | 30.49467 | 111.91742 | 31888 ft | 473 kts | 272° |
| 2026-05-05 09:13 | 30.49084 | 111.84130 | 31889 ft | 473 kts | 272° |
| 2026-05-05 09:13 | 30.48698 | 111.76515 | 31871 ft | 473 kts | 272° |
| 2026-05-05 09:14 | 30.48305 | 111.68907 | 31881 ft | 473 kts | 272° |
| 2026-05-05 09:14 | 30.47894 | 111.61292 | 31880 ft | 473 kts | 272° |
| 2026-05-05 09:15 | 30.47481 | 111.53686 | 31886 ft | 473 kts | 272° |
| 2026-05-05 09:15 | 30.46988 | 111.46083 | 31879 ft | 476 kts | 268° |
| 2026-05-05 09:16 | 30.45827 | 111.38509 | 31884 ft | 477 kts | 265° |
| 2026-05-05 09:16 | 30.44720 | 111.30930 | 31885 ft | 476 kts | 266° |
| 2026-05-05 09:17 | 30.43859 | 111.24632 | 31889 ft | 476 kts | 266° |
| 2026-05-05 09:17 | 30.42806 | 111.17054 | 31885 ft | 476 kts | 266° |
| 2026-05-05 09:18 | 30.41746 | 111.09485 | 31889 ft | 476 kts | 266° |
| 2026-05-05 09:18 | 30.40677 | 111.01910 | 31891 ft | 476 kts | 266° |
| 2026-05-05 09:19 | 30.39611 | 110.94342 | 31911 ft | 476 kts | 266° |
| 2026-05-05 09:19 | 30.38547 | 110.86764 | 31921 ft | 477 kts | 266° |
| 2026-05-05 09:20 | 30.37471 | 110.79179 | 31896 ft | 478 kts | 266° |
| 2026-05-05 09:20 | 30.36386 | 110.71588 | 31921 ft | 477 kts | 266° |
| 2026-05-05 09:21 | 30.35299 | 110.64027 | 31945 ft | 476 kts | 266° |
| 2026-05-05 09:21 | 30.34253 | 110.56509 | 31908 ft | 478 kts | 266° |
| 2026-05-05 09:22 | 30.33155 | 110.48935 | 31910 ft | 477 kts | 265° |
| 2026-05-05 09:22 | 30.32038 | 110.41401 | 31953 ft | 474 kts | 266° |
| 2026-05-05 09:23 | 30.30934 | 110.33868 | 31936 ft | 475 kts | 266° |
| 2026-05-05 09:23 | 30.29834 | 110.26327 | 31958 ft | 475 kts | 266° |
| 2026-05-05 09:24 | 30.28726 | 110.18774 | 31959 ft | 477 kts | 266° |
| 2026-05-05 09:24 | 30.27608 | 110.11204 | 31911 ft | 477 kts | 266° |
| 2026-05-05 09:25 | 30.26491 | 110.03654 | 31947 ft | 476 kts | 266° |
| 2026-05-05 09:25 | 30.25370 | 109.96101 | 31978 ft | 477 kts | 266° |
| 2026-05-05 09:26 | 30.24246 | 109.88532 | 31931 ft | 477 kts | 265° |
| 2026-05-05 09:26 | 30.23109 | 109.80995 | 31941 ft | 475 kts | 265° |
| 2026-05-05 09:27 | 30.21948 | 109.73477 | 31931 ft | 475 kts | 265° |
| 2026-05-05 09:27 | 30.20770 | 109.65965 | 31943 ft | 475 kts | 265° |
| 2026-05-05 09:28 | 30.19528 | 109.58459 | 31932 ft | 478 kts | 261° |
| 2026-05-05 09:28 | 30.17523 | 109.51090 | 31935 ft | 481 kts | 257° |
| 2026-05-05 09:29 | 30.15540 | 109.43711 | 31922 ft | 481 kts | 259° |
| 2026-05-05 09:29 | 30.13616 | 109.36364 | 31930 ft | 481 kts | 258° |
| 2026-05-05 09:30 | 30.11645 | 109.28977 | 31931 ft | 481 kts | 258° |
| 2026-05-05 09:30 | 30.09676 | 109.21596 | 31927 ft | 481 kts | 258° |
| 2026-05-05 09:31 | 30.07679 | 109.14216 | 31907 ft | 481 kts | 258° |
| 2026-05-05 09:31 | 30.05669 | 109.06859 | 31932 ft | 480 kts | 257° |
| 2026-05-05 09:32 | 30.03665 | 108.99509 | 31930 ft | 480 kts | 257° |
| 2026-05-05 09:32 | 30.01686 | 108.92172 | 31938 ft | 478 kts | 258° |
| 2026-05-05 09:33 | 29.99770 | 108.84826 | 31915 ft | 478 kts | 258° |
| 2026-05-05 09:33 | 29.97847 | 108.77487 | 31915 ft | 478 kts | 258° |
| 2026-05-05 09:34 | 29.95909 | 108.70147 | 31930 ft | 478 kts | 258° |
| 2026-05-05 09:34 | 29.93963 | 108.62824 | 31932 ft | 478 kts | 258° |
| 2026-05-05 09:35 | 29.92017 | 108.55495 | 31915 ft | 478 kts | 258° |
| 2026-05-05 09:35 | 29.89092 | 108.44497 | 31937 ft | 479 kts | 258° |
| 2026-05-05 09:36 | 29.87137 | 108.37202 | 31907 ft | 481 kts | 257° |
| 2026-05-05 09:36 | 29.85161 | 108.29841 | 31907 ft | 481 kts | 257° |
| 2026-05-05 09:37 | 29.83184 | 108.22485 | 31933 ft | 481 kts | 257° |
| 2026-05-05 09:37 | 29.81201 | 108.15123 | 31931 ft | 482 kts | 257° |
| 2026-05-05 09:38 | 29.79212 | 108.07753 | 31928 ft | 482 kts | 257° |
| 2026-05-05 09:38 | 29.77219 | 108.00387 | 31909 ft | 481 kts | 257° |
| 2026-05-05 09:39 | 29.75225 | 107.93033 | 31897 ft | 481 kts | 257° |
| 2026-05-05 09:39 | 29.73233 | 107.85679 | 31887 ft | 481 kts | 257° |
| 2026-05-05 09:40 | 29.71244 | 107.78334 | 31898 ft | 480 kts | 257° |
| 2026-05-05 09:40 | 29.69258 | 107.71013 | 31876 ft | 479 kts | 257° |
| 2026-05-05 09:41 | 29.67270 | 107.63696 | 31873 ft | 479 kts | 257° |
| 2026-05-05 09:41 | 29.65717 | 107.56342 | 31869 ft | 467 kts | 271° |
| 2026-05-05 09:42 | 29.66003 | 107.52661 | 31873 ft | 461 kts | 286° |
| 2026-05-05 09:42 | 29.66926 | 107.49149 | 31872 ft | 457 kts | 292° |
| 2026-05-05 09:42 | 29.68906 | 107.42158 | 31847 ft | 463 kts | 289° |
| 2026-05-05 09:43 | 29.70646 | 107.35008 | 31839 ft | 466 kts | 286° |
| 2026-05-05 09:43 | 29.72082 | 107.27729 | 31680 ft | 467 kts | 285° |
| 2026-05-05 09:44 | 29.72815 | 107.24078 | 31226 ft | 467 kts | 286° |
| 2026-05-05 09:44 | 29.73838 | 107.20572 | 30816 ft | 462 kts | 297° |
| 2026-05-05 09:44 | 29.75565 | 107.17481 | 30369 ft | 459 kts | 311° |
| 2026-05-05 09:44 | 29.77826 | 107.14906 | 29967 ft | 457 kts | 319° |
| 2026-05-05 09:45 | 29.80223 | 107.12602 | 29520 ft | 454 kts | 319° |
| 2026-05-05 09:45 | 29.82576 | 107.10209 | 29494 ft | 449 kts | 317° |
| 2026-05-05 09:45 | 29.87219 | 107.05307 | 29636 ft | 456 kts | 317° |
| 2026-05-05 09:46 | 29.89560 | 107.02829 | 29754 ft | 459 kts | 317° |
| 2026-05-05 09:46 | 29.91914 | 107.00346 | 29801 ft | 459 kts | 317° |
| 2026-05-05 09:46 | 29.96640 | 106.95382 | 29833 ft | 459 kts | 317° |
| 2026-05-05 09:47 | 30.01359 | 106.90429 | 29835 ft | 458 kts | 317° |
| 2026-05-05 09:47 | 30.06060 | 106.85484 | 29839 ft | 457 kts | 317° |
| 2026-05-05 09:48 | 30.10758 | 106.80533 | 29838 ft | 457 kts | 317° |
| 2026-05-05 09:48 | 30.15455 | 106.75580 | 29847 ft | 458 kts | 317° |
| 2026-05-05 09:49 | 30.20183 | 106.70591 | 29837 ft | 462 kts | 317° |
| 2026-05-05 09:49 | 30.24967 | 106.65535 | 29830 ft | 470 kts | 317° |
| 2026-05-05 09:50 | 30.29793 | 106.60426 | 29829 ft | 470 kts | 317° |
| 2026-05-05 09:50 | 30.34609 | 106.55322 | 29829 ft | 469 kts | 317° |
| 2026-05-05 09:51 | 30.39420 | 106.50215 | 29826 ft | 469 kts | 317° |
| 2026-05-05 09:51 | 30.44223 | 106.45110 | 29827 ft | 469 kts | 317° |
| 2026-05-05 09:52 | 30.49030 | 106.39995 | 29753 ft | 470 kts | 317° |
| 2026-05-05 09:52 | 30.51442 | 106.37426 | 29487 ft | 472 kts | 317° |
| 2026-05-05 09:52 | 30.53861 | 106.34848 | 29111 ft | 472 kts | 317° |
| 2026-05-05 09:53 | 30.56215 | 106.32207 | 28695 ft | 472 kts | 310° |
| 2026-05-05 09:53 | 30.57987 | 106.28990 | 28285 ft | 477 kts | 294° |
| 2026-05-05 09:53 | 30.59002 | 106.25318 | 27924 ft | 481 kts | 283° |
| 2026-05-05 09:53 | 30.59347 | 106.21451 | 27547 ft | 485 kts | 270° |
| 2026-05-05 09:54 | 30.58999 | 106.17570 | 27194 ft | 484 kts | 264° |
| 2026-05-05 09:54 | 30.58526 | 106.13693 | 26831 ft | 486 kts | 264° |
| 2026-05-05 09:54 | 30.58051 | 106.09809 | 26467 ft | 486 kts | 264° |
| 2026-05-05 09:54 | 30.57598 | 106.05918 | 26110 ft | 486 kts | 264° |
| 2026-05-05 09:55 | 30.57168 | 106.02029 | 25755 ft | 486 kts | 264° |
| 2026-05-05 09:55 | 30.56757 | 105.98148 | 25393 ft | 484 kts | 264° |
| 2026-05-05 09:55 | 30.56360 | 105.94334 | 25050 ft | 482 kts | 264° |
| 2026-05-05 09:55 | 30.55960 | 105.90485 | 24700 ft | 479 kts | 264° |
| 2026-05-05 09:56 | 30.55562 | 105.86666 | 24339 ft | 474 kts | 264° |
| 2026-05-05 09:56 | 30.55163 | 105.82866 | 23965 ft | 463 kts | 264° |
| 2026-05-05 09:56 | 30.54780 | 105.79235 | 23611 ft | 457 kts | 264° |
| 2026-05-05 09:56 | 30.54395 | 105.75592 | 23254 ft | 453 kts | 264° |
| 2026-05-05 09:57 | 30.54010 | 105.71971 | 22834 ft | 451 kts | 264° |
| 2026-05-05 09:57 | 30.53640 | 105.68369 | 22422 ft | 449 kts | 264° |
| 2026-05-05 09:57 | 30.53278 | 105.64781 | 22020 ft | 447 kts | 264° |
| 2026-05-05 09:57 | 30.52918 | 105.61211 | 21635 ft | 445 kts | 264° |
| 2026-05-05 09:58 | 30.52556 | 105.57657 | 21267 ft | 443 kts | 264° |
| 2026-05-05 09:58 | 30.52186 | 105.54121 | 20905 ft | 441 kts | 263° |
| 2026-05-05 09:58 | 30.51804 | 105.50600 | 20542 ft | 439 kts | 263° |
| 2026-05-05 09:58 | 30.51421 | 105.47093 | 20184 ft | 438 kts | 263° |
| 2026-05-05 09:59 | 30.51041 | 105.43599 | 19832 ft | 436 kts | 263° |
| 2026-05-05 09:59 | 30.50662 | 105.40114 | 19482 ft | 435 kts | 263° |
| 2026-05-05 09:59 | 30.50284 | 105.36640 | 19139 ft | 434 kts | 263° |
| 2026-05-05 09:59 | 30.49906 | 105.33178 | 18800 ft | 432 kts | 263° |
| 2026-05-05 10:00 | 30.49527 | 105.29724 | 18465 ft | 431 kts | 263° |
| 2026-05-05 10:00 | 30.49148 | 105.26285 | 18137 ft | 429 kts | 263° |
| 2026-05-05 10:00 | 30.48768 | 105.22855 | 17759 ft | 428 kts | 263° |
| 2026-05-05 10:00 | 30.48297 | 105.19485 | 17365 ft | 421 kts | 255° |
| 2026-05-05 10:01 | 30.47133 | 105.16391 | 16962 ft | 420 kts | 237° |
| 2026-05-05 10:01 | 30.45362 | 105.13739 | 16614 ft | 414 kts | 231° |
| 2026-05-05 10:01 | 30.43556 | 105.11138 | 16257 ft | 415 kts | 232° |
| 2026-05-05 10:01 | 30.41769 | 105.08517 | 15900 ft | 415 kts | 232° |
| 2026-05-05 10:02 | 30.39992 | 105.05887 | 15547 ft | 415 kts | 232° |
| 2026-05-05 10:02 | 30.38224 | 105.03258 | 15182 ft | 411 kts | 232° |
| 2026-05-05 10:02 | 30.36487 | 105.00671 | 14827 ft | 402 kts | 232° |
| 2026-05-05 10:02 | 30.34794 | 104.98148 | 14462 ft | 392 kts | 231° |
| 2026-05-05 10:03 | 30.33139 | 104.95683 | 14114 ft | 383 kts | 231° |
| 2026-05-05 10:03 | 30.31518 | 104.93272 | 13764 ft | 376 kts | 231° |
| 2026-05-05 10:03 | 30.29929 | 104.90908 | 13397 ft | 369 kts | 231° |
| 2026-05-05 10:03 | 30.28371 | 104.88592 | 13021 ft | 362 kts | 231° |
| 2026-05-05 10:04 | 30.26838 | 104.86315 | 12649 ft | 356 kts | 231° |
| 2026-05-05 10:04 | 30.25322 | 104.84065 | 12268 ft | 353 kts | 231° |
| 2026-05-05 10:04 | 30.23824 | 104.81843 | 11901 ft | 348 kts | 231° |
| 2026-05-05 10:04 | 30.22348 | 104.79654 | 11557 ft | 342 kts | 231° |
| 2026-05-05 10:05 | 30.20900 | 104.77508 | 11281 ft | 335 kts | 231° |
| 2026-05-05 10:05 | 30.19483 | 104.75408 | 11032 ft | 327 kts | 231° |
| 2026-05-05 10:05 | 30.18098 | 104.73357 | 10794 ft | 320 kts | 231° |
| 2026-05-05 10:05 | 30.16741 | 104.71349 | 10552 ft | 314 kts | 231° |
| 2026-05-05 10:06 | 30.15859 | 104.70044 | 10457 ft | 307 kts | 231° |
| 2026-05-05 10:06 | 30.14166 | 104.67541 | 10430 ft | 290 kts | 231° |
| 2026-05-05 10:06 | 30.13337 | 104.66314 | 10345 ft | 286 kts | 230° |
| 2026-05-05 10:06 | 30.12111 | 104.64506 | 10234 ft | 285 kts | 230° |
| 2026-05-05 10:07 | 30.10498 | 104.62124 | 9984 ft | 284 kts | 231° |
| 2026-05-05 10:07 | 30.09279 | 104.60325 | 9767 ft | 284 kts | 231° |
| 2026-05-05 10:07 | 30.08060 | 104.58527 | 9440 ft | 285 kts | 231° |
| 2026-05-05 10:07 | 30.07232 | 104.57306 | 9179 ft | 286 kts | 230° |
| 2026-05-05 10:08 | 30.06020 | 104.55520 | 8808 ft | 287 kts | 231° |
| 2026-05-05 10:08 | 30.04786 | 104.53701 | 8371 ft | 289 kts | 230° |
| 2026-05-05 10:08 | 30.03554 | 104.51884 | 7911 ft | 283 kts | 230° |
| 2026-05-05 10:08 | 30.02359 | 104.50124 | 7454 ft | 279 kts | 230° |
| 2026-05-05 10:09 | 30.01151 | 104.48349 | 7028 ft | 283 kts | 230° |
| 2026-05-05 10:09 | 29.99930 | 104.46552 | 6538 ft | 282 kts | 229° |
| 2026-05-05 10:09 | 29.98739 | 104.44800 | 6048 ft | 275 kts | 230° |
| 2026-05-05 10:09 | 29.97752 | 104.42936 | 5542 ft | 274 kts | 250° |
| 2026-05-05 10:10 | 29.97650 | 104.40758 | 5111 ft | 274 kts | 281° |
| 2026-05-05 10:10 | 29.98267 | 104.38734 | 4927 ft | 266 kts | 291° |
| 2026-05-05 10:10 | 29.98980 | 104.36762 | 4906 ft | 262 kts | 291° |
| 2026-05-05 10:10 | 29.99663 | 104.34862 | 4878 ft | 251 kts | 291° |
| 2026-05-05 10:11 | 30.00307 | 104.33058 | 4875 ft | 236 kts | 290° |
| 2026-05-05 10:11 | 30.00911 | 104.31380 | 4907 ft | 216 kts | 294° |
| 2026-05-05 10:11 | 30.01838 | 104.30102 | 4887 ft | 212 kts | 331° |
| 2026-05-05 10:11 | 30.03230 | 104.29785 | 4879 ft | 204 kts | 14° |
| 2026-05-05 10:12 | 30.04528 | 104.30311 | 4902 ft | 196 kts | 25° |
| 2026-05-05 10:12 | 30.05797 | 104.30890 | 4901 ft | 196 kts | 25° |
| 2026-05-05 10:12 | 30.07074 | 104.31470 | 4909 ft | 197 kts | 24° |
| 2026-05-05 10:12 | 30.08343 | 104.32042 | 4902 ft | 195 kts | 25° |
| 2026-05-05 10:13 | 30.09598 | 104.32622 | 4898 ft | 193 kts | 25° |
| 2026-05-05 10:13 | 30.10836 | 104.33200 | 4894 ft | 191 kts | 25° |
| 2026-05-05 10:13 | 30.12067 | 104.33777 | 4891 ft | 194 kts | 26° |
| 2026-05-05 10:13 | 30.13349 | 104.34381 | 4647 ft | 200 kts | 25° |
| 2026-05-05 10:14 | 30.14624 | 104.34978 | 4387 ft | 195 kts | 25° |
| 2026-05-05 10:14 | 30.15840 | 104.35548 | 4119 ft | 182 kts | 26° |
| 2026-05-05 10:14 | 30.16967 | 104.36076 | 3883 ft | 167 kts | 26° |
| 2026-05-05 10:14 | 30.18008 | 104.36564 | 3683 ft | 158 kts | 26° |
| 2026-05-05 10:15 | 30.19040 | 104.37052 | 3511 ft | 164 kts | 25° |
| 2026-05-05 10:15 | 30.20097 | 104.37549 | 3302 ft | 163 kts | 25° |
| 2026-05-05 10:15 | 30.21146 | 104.38042 | 3085 ft | 162 kts | 25° |
| 2026-05-05 10:15 | 30.22188 | 104.38532 | 2874 ft | 163 kts | 26° |
| 2026-05-05 10:16 | 30.23245 | 104.39029 | 2675 ft | 165 kts | 25° |
| 2026-05-05 10:16 | 30.24300 | 104.39524 | 2460 ft | 162 kts | 25° |
| 2026-05-05 10:16 | 30.25323 | 104.40004 | 2249 ft | 157 kts | 28° |
| 2026-05-05 10:16 | 30.26323 | 104.40480 | 2072 ft | 155 kts | 22° |
| 2026-05-05 10:17 | 30.27337 | 104.40954 | 1853 ft | 157 kts | 22° |
| 2026-05-05 10:17 | 30.28342 | 104.41424 | 1631 ft | 154 kts | 23° |
| 2026-05-05 10:17 | 30.29332 | 104.41881 | 1460 ft | 146 kts | 23° |
| 2026-05-05 10:17 | 30.30181 | 104.42287 | 1442 ft | 114 kts | 22° |
| 2026-05-05 10:18 | 30.30773 | 104.42564 | 1440 ft | 69 kts | 22° |
| 2026-05-05 10:18 | 30.31066 | 104.42734 | 1436 ft | 25 kts | 42° |
| 2026-05-05 10:18 | 30.31104 | 104.42780 | 1436 ft | 7 kts | 50° |
| 2026-05-05 10:18 | 30.31166 | 104.42858 | 1436 ft | 14 kts | 47° |
| 2026-05-05 10:19 | 30.31232 | 104.42944 | 1435 ft | 14 kts | 48° |
| 2026-05-05 10:19 | 30.31305 | 104.43021 | 1434 ft | 14 kts | 33° |
| 2026-05-05 10:19 | 30.31406 | 104.43074 | 1434 ft | 18 kts | 22° |
| 2026-05-05 10:19 | 30.31496 | 104.43118 | 1433 ft | 13 kts | 31° |
| 2026-05-05 10:20 | 30.31495 | 104.43219 | 1433 ft | 16 kts | 121° |
| 2026-05-05 10:20 | 30.31443 | 104.43344 | 1433 ft | 19 kts | 114° |
| 2026-05-05 10:20 | 30.31407 | 104.43451 | 1433 ft | 7 kts | 112° |
| 2026-05-05 10:20 | 30.31394 | 104.43488 | 1433 ft | 6 kts | 113° |
| 2026-05-05 10:21 | 30.31371 | 104.43544 | 1433 ft | 9 kts | 117° |
| 2026-05-05 10:21 | 30.31368 | 104.43551 | 1433 ft | 0 kts | 118° |
| 2026-05-05 10:25 | 30.31361 | 104.43565 | 1433 ft | 4 kts | 120° |
| 2026-05-05 10:25 | 30.31335 | 104.43603 | 1433 ft | 8 kts | 120° |
| 2026-05-05 10:26 | 30.31352 | 104.43657 | 1433 ft | 1 kts | 50° |
| 2026-05-05 10:26 | 30.31365 | 104.43674 | 1433 ft | 5 kts | 48° |
| 2026-05-05 10:26 | 30.31395 | 104.43711 | 1433 ft | 0 kts | 45° |
| 2026-05-05 10:26 | 30.31395 | 104.43712 | 1433 ft | 0 kts | 45° |